Time;durP1;ratioP1;P1;durP2;ratioP2;P2;SDS_P1;SDS_P2;PMS_P1;PMS_P2;Temp;Humidity;BMP_temperature;BMP_pressure;BME280_temperature;BME280_humidity;BME280_pressure;Samples;Min_cycle;Max_cycle;Signal;HPM_P1;HPM_P2
2022/07/17 00:01:51;;;;;;;14.33;4.60;;;;;;;;;;5034358;28;20100;-66
2022/07/17 00:04:16;;;;;;;13.90;5.10;;;;;;;;;;5033337;28;20025;-67
2022/07/17 00:06:41;;;;;;;13.23;4.77;;;;;;;;;;5036857;28;20029;-66
2022/07/17 00:09:07;;;;;;;12.17;4.90;;;;;;;;;;5035746;28;20100;-67
2022/07/17 00:11:32;;;;;;;14.33;5.53;;;;;;;;;;5025892;28;20041;-67
2022/07/17 00:13:57;;;;;;;16.50;7.60;;;;;;;;;;5008416;28;20046;-67
2022/07/17 00:16:23;;;;;;;16.60;5.03;;;;;;;;;;5008994;28;20405;-67
2022/07/17 00:18:48;;;;;;;18.03;6.40;;;;;;;;;;5009806;28;21885;-67
2022/07/17 00:21:14;;;;;;;16.13;5.57;;;;;;;;;;5035031;28;20028;-67
2022/07/17 00:23:39;;;;;;;13.77;5.13;;;;;;;;;;5036321;28;20492;-67
2022/07/17 00:26:04;;;;;;;12.70;4.83;;;;;;;;;;5032027;28;20140;-67
2022/07/17 00:28:30;;;;;;;11.60;4.00;;;;;;;;;;5027496;28;20018;-67
2022/07/17 00:30:55;;;;;;;9.67;3.80;;;;;;;;;;5026683;28;20022;-67
2022/07/17 00:33:20;;;;;;;9.17;4.10;;;;;;;;;;5008794;28;20036;-67
2022/07/17 00:35:46;;;;;;;11.43;4.80;;;;;;;;;;5020695;28;20709;-67
2022/07/17 00:38:11;;;;;;;25.17;6.57;;;;;;;;;;5016935;28;20535;-67
2022/07/17 00:40:36;;;;;;;16.30;6.13;;;;;;;;;;5011146;28;20041;-67
2022/07/17 00:43:01;;;;;;;16.13;6.20;;;;;;;;;;5040839;28;20029;-67
2022/07/17 00:45:27;;;;;;;13.27;4.37;;;;;;;;;;5031162;28;20121;-67
2022/07/17 00:47:55;;;;;;;11.57;3.77;;;;;;;;;;5010184;28;20037;-67
2022/07/17 00:50:26;;;;;;;19.90;6.93;;;;;;;;;;5007786;28;20041;-66
2022/07/17 00:52:51;;;;;;;15.17;5.97;;;;;;;;;;5014587;28;20037;-66
2022/07/17 00:55:20;;;;;;;17.43;5.93;;;;;;;;;;5008423;28;20037;-66
2022/07/17 00:57:46;;;;;;;15.00;5.90;;;;;;;;;;5010182;28;20044;-66
2022/07/17 01:00:12;;;;;;;17.23;6.87;;;;;;;;;;5008635;28;20034;-67
2022/07/17 01:02:37;;;;;;;15.73;6.77;;;;;;;;;;5007727;28;20111;-67
2022/07/17 01:05:03;;;;;;;21.10;7.33;;;;;;;;;;5006001;28;20030;-67
2022/07/17 01:07:28;;;;;;;26.53;8.10;;;;;;;;;;5018077;28;20065;-66
2022/07/17 01:09:53;;;;;;;21.37;7.20;;;;;;;;;;5024459;28;20044;-67
2022/07/17 01:12:19;;;;;;;10.67;4.40;;;;;;;;;;5031156;28;20116;-67
2022/07/17 01:14:44;;;;;;;16.27;5.53;;;;;;;;;;5028595;28;20022;-66
2022/07/17 01:17:10;;;;;;;17.70;7.20;;;;;;;;;;5031890;28;20535;-67
2022/07/17 01:19:35;;;;;;;17.43;6.60;;;;;;;;;;5024317;28;20485;-67
2022/07/17 01:22:00;;;;;;;15.77;6.03;;;;;;;;;;5033552;28;20075;-67
2022/07/17 01:24:26;;;;;;;10.30;4.50;;;;;;;;;;5032855;28;20557;-67
2022/07/17 01:26:51;;;;;;;12.73;5.20;;;;;;;;;;5021806;28;20030;-67
2022/07/17 01:29:18;;;;;;;14.93;6.97;;;;;;;;;;5030924;28;20025;-67
2022/07/17 01:31:43;;;;;;;16.47;6.70;;;;;;;;;;5030870;28;20485;-67
2022/07/17 01:34:09;;;;;;;20.10;7.27;;;;;;;;;;5031081;28;20036;-66
2022/07/17 01:36:35;;;;;;;11.40;5.00;;;;;;;;;;5034872;28;20067;-66
2022/07/17 01:39:00;;;;;;;15.00;7.00;;;;;;;;;;5033411;28;20465;-66
2022/07/17 01:41:26;;;;;;;15.70;5.33;;;;;;;;;;5029816;28;20033;-67
2022/07/17 01:43:51;;;;;;;14.37;5.23;;;;;;;;;;5030497;28;20048;-66
2022/07/17 01:46:16;;;;;;;10.70;5.10;;;;;;;;;;5025567;28;20258;-66
2022/07/17 01:48:42;;;;;;;19.13;6.57;;;;;;;;;;5036214;28;20112;-66
2022/07/17 01:51:07;;;;;;;18.63;6.53;;;;;;;;;;5029316;28;20429;-67
2022/07/17 01:53:32;;;;;;;16.23;7.17;;;;;;;;;;5030745;28;20556;-67
2022/07/17 01:55:57;;;;;;;15.57;6.23;;;;;;;;;;5029300;28;20053;-66
2022/07/17 01:58:23;;;;;;;15.17;5.77;;;;;;;;;;5020614;28;20043;-66
2022/07/17 02:00:48;;;;;;;13.33;6.10;;;;;;;;;;5027755;28;20486;-67
2022/07/17 02:03:13;;;;;;;27.60;7.80;;;;;;;;;;5021626;28;20063;-67
2022/07/17 02:05:39;;;;;;;20.33;8.60;;;;;;;;;;5022681;28;20432;-66
2022/07/17 02:08:04;;;;;;;16.07;5.90;;;;;;;;;;5024941;28;20592;-67
2022/07/17 02:10:29;;;;;;;15.63;6.80;;;;;;;;;;5028537;28;20599;-67
2022/07/17 02:12:54;;;;;;;17.57;6.47;;;;;;;;;;5022366;28;20497;-67
2022/07/17 02:15:20;;;;;;;14.97;6.30;;;;;;;;;;5030330;28;20029;-66
2022/07/17 02:17:45;;;;;;;15.60;7.40;;;;;;;;;;5027697;28;20116;-67
2022/07/17 02:20:12;;;;;;;18.27;7.10;;;;;;;;;;5026435;28;20025;-67
2022/07/17 02:22:37;;;;;;;17.03;7.93;;;;;;;;;;5027043;28;20032;-66
2022/07/17 02:25:03;;;;;;;18.90;8.67;;;;;;;;;;5023740;28;20028;-66
2022/07/17 02:27:30;;;;;;;18.87;8.00;;;;;;;;;;5015415;28;20429;-67
2022/07/17 02:29:56;;;;;;;8.83;3.67;;;;;;;;;;5026696;28;20374;-66
2022/07/17 02:32:21;;;;;;;10.23;2.47;;;;;;;;;;5021206;28;20091;-66
2022/07/17 02:34:46;;;;;;;7.90;2.93;;;;;;;;;;5026254;28;20099;-67
2022/07/17 02:37:12;;;;;;;6.23;3.23;;;;;;;;;;5033460;28;20413;-67
2022/07/17 02:39:51;;;;;;;12.47;4.90;;;;;;;;;;5022147;28;20030;-66
2022/07/17 02:42:17;;;;;;;10.17;4.60;;;;;;;;;;5023939;28;20080;-66
2022/07/17 02:44:42;;;;;;;17.77;6.07;;;;;;;;;;5030411;28;20067;-66
2022/07/17 02:47:07;;;;;;;13.93;5.80;;;;;;;;;;5032272;28;20033;-67
2022/07/17 02:49:32;;;;;;;14.30;6.47;;;;;;;;;;5029085;28;20021;-66
2022/07/17 02:51:58;;;;;;;19.93;8.63;;;;;;;;;;5033369;28;20033;-66
2022/07/17 02:54:24;;;;;;;19.70;8.87;;;;;;;;;;5030911;28;20396;-66
2022/07/17 02:56:49;;;;;;;25.00;11.10;;;;;;;;;;5030544;28;20033;-66
2022/07/17 02:59:14;;;;;;;22.07;9.97;;;;;;;;;;5031352;28;20033;-67
2022/07/17 03:01:39;;;;;;;17.33;8.07;;;;;;;;;;5028566;28;20102;-66
2022/07/17 03:04:05;;;;;;;23.07;8.67;;;;;;;;;;5029860;28;20040;-67
2022/07/17 03:06:30;;;;;;;20.67;9.43;;;;;;;;;;5026194;28;20037;-66
2022/07/17 03:08:55;;;;;;;16.93;9.20;;;;;;;;;;5029273;28;20045;-67
2022/07/17 03:11:20;;;;;;;24.27;10.13;;;;;;;;;;5018810;28;20075;-66
2022/07/17 03:13:45;;;;;;;26.60;11.33;;;;;;;;;;5022957;28;20124;-67
2022/07/17 03:16:11;;;;;;;24.97;10.93;;;;;;;;;;5018311;28;20048;-66
2022/07/17 03:18:36;;;;;;;27.30;10.80;;;;;;;;;;5028905;28;20029;-66
2022/07/17 03:21:01;;;;;;;25.70;10.97;;;;;;;;;;5030202;28;20025;-66
2022/07/17 03:23:27;;;;;;;13.47;6.17;;;;;;;;;;5029771;28;20091;-66
2022/07/17 03:25:52;;;;;;;15.03;6.80;;;;;;;;;;5021127;28;20025;-66
2022/07/17 03:28:18;;;;;;;14.70;7.00;;;;;;;;;;5021285;28;20032;-66
2022/07/17 03:30:43;;;;;;;12.87;6.00;;;;;;;;;;5020170;28;20364;-66
2022/07/17 03:33:08;;;;;;;15.00;6.27;;;;;;;;;;5019515;28;20026;-66
2022/07/17 03:35:33;;;;;;;12.73;5.73;;;;;;;;;;5021431;28;20388;-67
2022/07/17 03:37:59;;;;;;;10.50;5.53;;;;;;;;;;5026016;28;20037;-66
2022/07/17 03:40:24;;;;;;;21.10;7.40;;;;;;;;;;5021141;28;20029;-66
2022/07/17 03:42:49;;;;;;;19.27;7.63;;;;;;;;;;5032081;28;20107;-67
2022/07/17 03:45:14;;;;;;;15.13;7.07;;;;;;;;;;5030973;28;20096;-66
2022/07/17 03:47:40;;;;;;;20.80;7.83;;;;;;;;;;5030270;28;20891;-66
2022/07/17 03:50:05;;;;;;;13.17;7.30;;;;;;;;;;5032375;28;20176;-66
2022/07/17 03:52:30;;;;;;;13.70;6.30;;;;;;;;;;5028106;28;20041;-66
2022/07/17 03:54:56;;;;;;;16.53;7.57;;;;;;;;;;5029046;28;20482;-66
2022/07/17 03:57:21;;;;;;;17.63;7.80;;;;;;;;;;5028120;28;20033;-66
2022/07/17 03:59:46;;;;;;;14.50;7.80;;;;;;;;;;5030587;28;20025;-66
2022/07/17 04:02:11;;;;;;;17.00;8.07;;;;;;;;;;5027397;28;20033;-67
2022/07/17 04:04:37;;;;;;;19.20;7.80;;;;;;;;;;5031318;28;20027;-67
2022/07/17 04:07:02;;;;;;;19.47;8.47;;;;;;;;;;5035065;28;20037;-67
2022/07/17 04:09:27;;;;;;;18.77;8.13;;;;;;;;;;5027761;28;20082;-67
2022/07/17 04:11:52;;;;;;;19.70;8.03;;;;;;;;;;5024794;28;20034;-67
2022/07/17 04:14:18;;;;;;;16.57;6.90;;;;;;;;;;5033649;28;20104;-67
2022/07/17 04:16:43;;;;;;;13.83;5.20;;;;;;;;;;5029266;28;20025;-67
2022/07/17 04:19:08;;;;;;;12.07;5.03;;;;;;;;;;5026478;28;20420;-67
2022/07/17 04:21:33;;;;;;;13.37;4.83;;;;;;;;;;5018490;28;20531;-67
2022/07/17 04:23:59;;;;;;;12.90;5.20;;;;;;;;;;5025014;28;20040;-67
2022/07/17 04:26:24;;;;;;;13.47;4.80;;;;;;;;;;5028091;28;20101;-67
2022/07/17 04:28:49;;;;;;;9.80;4.50;;;;;;;;;;5030850;28;20013;-67
2022/07/17 04:31:14;;;;;;;11.90;4.13;;;;;;;;;;5032801;28;20021;-67
2022/07/17 04:33:39;;;;;;;10.80;4.17;;;;;;;;;;5032748;28;20033;-67
2022/07/17 04:36:05;;;;;;;12.80;4.30;;;;;;;;;;5033871;28;20068;-67
2022/07/17 04:38:30;;;;;;;8.33;3.80;;;;;;;;;;5033069;28;21518;-67
2022/07/17 04:40:55;;;;;;;12.73;3.80;;;;;;;;;;5018696;28;20422;-67
2022/07/17 04:43:20;;;;;;;12.50;4.23;;;;;;;;;;5029019;28;20021;-67
2022/07/17 04:45:46;;;;;;;11.27;3.73;;;;;;;;;;5030291;28;20488;-67
2022/07/17 04:48:11;;;;;;;10.80;4.07;;;;;;;;;;5034904;28;20029;-68
2022/07/17 04:50:36;;;;;;;11.13;4.00;;;;;;;;;;5021959;28;20034;-67
2022/07/17 04:53:01;;;;;;;10.80;4.40;;;;;;;;;;5027162;28;20524;-67
2022/07/17 04:55:27;;;;;;;13.00;5.27;;;;;;;;;;5031538;28;20030;-67
2022/07/17 04:57:53;;;;;;;12.27;4.40;;;;;;;;;;5030531;28;20358;-67
2022/07/17 05:00:19;;;;;;;13.60;4.50;;;;;;;;;;5027163;28;20497;-66
2022/07/17 05:02:44;;;;;;;13.37;4.70;;;;;;;;;;5020490;28;20064;-67
2022/07/17 05:05:09;;;;;;;11.47;4.40;;;;;;;;;;5031590;28;20037;-67
2022/07/17 05:07:35;;;;;;;12.83;4.83;;;;;;;;;;5032203;28;20108;-67
2022/07/17 05:10:00;;;;;;;13.23;4.83;;;;;;;;;;5034905;28;20036;-67
2022/07/17 05:12:25;;;;;;;14.27;5.07;;;;;;;;;;5029183;28;20108;-67
2022/07/17 05:14:51;;;;;;;10.97;5.23;;;;;;;;;;5030487;28;20096;-67
2022/07/17 05:17:16;;;;;;;10.83;5.27;;;;;;;;;;5017968;28;20053;-67
2022/07/17 05:19:41;;;;;;;13.57;4.70;;;;;;;;;;5029785;28;20071;-67
2022/07/17 05:22:06;;;;;;;11.33;5.33;;;;;;;;;;5023747;28;20096;-67
2022/07/17 05:24:33;;;;;;;16.53;4.97;;;;;;;;;;5032371;28;20037;-67
2022/07/17 05:26:59;;;;;;;15.03;5.63;;;;;;;;;;5034180;28;20111;-67
2022/07/17 05:29:24;;;;;;;11.30;5.10;;;;;;;;;;5030084;28;20029;-66
2022/07/17 05:31:49;;;;;;;11.20;5.13;;;;;;;;;;5035153;28;20053;-66
2022/07/17 05:34:14;;;;;;;10.73;4.80;;;;;;;;;;5029961;28;20060;-67
2022/07/17 05:36:40;;;;;;;12.77;4.60;;;;;;;;;;5016545;28;20033;-66
2022/07/17 05:39:05;;;;;;;9.40;4.67;;;;;;;;;;5027241;28;20332;-67
2022/07/17 05:41:30;;;;;;;13.63;4.77;;;;;;;;;;5035010;28;20032;-67
2022/07/17 05:43:55;;;;;;;12.77;4.97;;;;;;;;;;5028249;28;20030;-66
2022/07/17 05:46:20;;;;;;;8.27;3.80;;;;;;;;;;5025489;28;20526;-66
2022/07/17 05:48:46;;;;;;;13.87;3.93;;;;;;;;;;5029850;28;20043;-66
2022/07/17 05:51:11;;;;;;;11.70;4.03;;;;;;;;;;5030451;28;20108;-66
2022/07/17 05:53:36;;;;;;;9.93;3.88;;;;;;;;;;5029469;28;20122;-66
2022/07/17 05:56:01;;;;;;;10.30;3.90;;;;;;;;;;5016536;28;20052;-66
2022/07/17 05:58:27;;;;;;;12.68;3.95;;;;;;;;;;5034703;28;20036;-66
2022/07/17 06:00:53;;;;;;;9.82;3.67;;;;;;;;;;5016348;28;20017;-67
2022/07/17 06:03:18;;;;;;;12.45;3.60;;;;;;;;;;5035468;28;20017;-66
2022/07/17 06:05:43;;;;;;;15.05;3.40;;;;;;;;;;5031736;28;20364;-67
2022/07/17 06:08:09;;;;;;;7.75;3.40;;;;;;;;;;5031087;28;20061;-67
2022/07/17 06:10:35;;;;;;;9.50;2.70;;;;;;;;;;5017723;28;20026;-67
2022/07/17 06:13:00;;;;;;;8.30;3.03;;;;;;;;;;5013903;28;20383;-67
2022/07/17 06:15:25;;;;;;;8.57;2.88;;;;;;;;;;5023366;28;20032;-67
2022/07/17 06:17:51;;;;;;;9.15;2.40;;;;;;;;;;5035721;28;20018;-67
2022/07/17 06:20:16;;;;;;;8.43;2.42;;;;;;;;;;5025312;28;20026;-67
2022/07/17 06:22:42;;;;;;;7.88;2.40;;;;;;;;;;5028268;28;20029;-67
2022/07/17 06:25:08;;;;;;;5.35;2.20;;;;;;;;;;5015173;28;20036;-69
2022/07/17 06:27:33;;;;;;;7.13;2.05;;;;;;;;;;5024949;28;20056;-67
2022/07/17 06:29:58;;;;;;;9.50;2.10;;;;;;;;;;5031089;28;20086;-67
2022/07/17 06:32:24;;;;;;;7.50;1.90;;;;;;;;;;5029075;28;20028;-67
2022/07/17 06:34:49;;;;;;;9.50;1.80;;;;;;;;;;5026623;28;20028;-67
2022/07/17 06:37:14;;;;;;;8.32;1.90;;;;;;;;;;5021959;28;20065;-67
2022/07/17 06:39:40;;;;;;;8.77;2.33;;;;;;;;;;5026660;28;20025;-68
2022/07/17 06:42:05;;;;;;;11.38;2.30;;;;;;;;;;5022916;28;20029;-67
2022/07/17 06:44:30;;;;;;;9.77;1.90;;;;;;;;;;5030328;28;20031;-67
2022/07/17 06:46:55;;;;;;;6.45;1.75;;;;;;;;;;5027979;28;20108;-67
2022/07/17 06:49:21;;;;;;;6.82;1.77;;;;;;;;;;5028304;28;20151;-67
2022/07/17 06:51:47;;;;;;;7.40;1.60;;;;;;;;;;5020236;28;20358;-67
2022/07/17 06:54:12;;;;;;;11.60;1.60;;;;;;;;;;5029436;28;20112;-67
2022/07/17 06:56:38;;;;;;;5.55;1.40;;;;;;;;;;5035240;28;20036;-67
2022/07/17 06:59:06;;;;;;;7.00;2.10;;;;;;;;;;5030092;28;20021;-67
2022/07/17 07:01:32;;;;;;;9.25;1.80;;;;;;;;;;5030421;28;20021;-68
2022/07/17 07:03:57;;;;;;;5.85;1.38;;;;;;;;;;5030762;28;20021;-67
2022/07/17 07:06:22;;;;;;;7.47;1.88;;;;;;;;;;5026630;28;20014;-68
2022/07/17 07:08:47;;;;;;;7.18;1.40;;;;;;;;;;5028258;28;20017;-67
2022/07/17 07:11:13;;;;;;;5.55;1.50;;;;;;;;;;5029609;28;20105;-67
2022/07/17 07:13:38;;;;;;;6.55;1.58;;;;;;;;;;5027927;28;20029;-68
2022/07/17 07:16:03;;;;;;;6.35;1.35;;;;;;;;;;5030316;28;20017;-67
2022/07/17 07:18:29;;;;;;;7.25;1.60;;;;;;;;;;5027668;28;20014;-67
2022/07/17 07:20:54;;;;;;;5.32;1.30;;;;;;;;;;5021758;28;20030;-68
2022/07/17 07:23:19;;;;;;;7.35;1.33;;;;;;;;;;5022943;28;20021;-68
2022/07/17 07:25:44;;;;;;;7.60;1.60;;;;;;;;;;5022319;28;20047;-68
2022/07/17 07:28:10;;;;;;;6.05;1.10;;;;;;;;;;5030281;28;20021;-68
2022/07/17 07:30:35;;;;;;;7.50;1.75;;;;;;;;;;5029135;28;20022;-68
2022/07/17 07:33:01;;;;;;;6.53;1.70;;;;;;;;;;5028406;28;20025;-68
2022/07/17 07:35:26;;;;;;;8.32;1.60;;;;;;;;;;5028426;28;20025;-67
2022/07/17 07:37:51;;;;;;;4.60;1.25;;;;;;;;;;5026646;28;20009;-67
2022/07/17 07:40:16;;;;;;;4.35;1.33;;;;;;;;;;5033299;28;20151;-68
2022/07/17 07:42:42;;;;;;;7.30;1.67;;;;;;;;;;5032453;28;20086;-68
2022/07/17 07:45:08;;;;;;;6.78;1.50;;;;;;;;;;5033573;28;20053;-69
2022/07/17 07:47:39;;;;;;;6.35;1.40;;;;;;;;;;5033064;28;20025;-68
2022/07/17 07:50:05;;;;;;;8.30;1.60;;;;;;;;;;5034660;28;20120;-68
2022/07/17 07:52:31;;;;;;;6.32;1.30;;;;;;;;;;5034046;28;20501;-68
2022/07/17 07:54:56;;;;;;;6.35;1.30;;;;;;;;;;5037429;28;20112;-67
2022/07/17 07:57:21;;;;;;;6.18;1.10;;;;;;;;;;5033817;28;20098;-68
2022/07/17 07:59:46;;;;;;;5.15;1.20;;;;;;;;;;5033589;28;20049;-68
2022/07/17 08:02:12;;;;;;;5.35;1.10;;;;;;;;;;5033187;28;20014;-68
2022/07/17 08:04:37;;;;;;;5.28;1.35;;;;;;;;;;5033603;28;20034;-69
2022/07/17 08:07:02;;;;;;;6.43;1.00;;;;;;;;;;5034150;28;20018;-68
2022/07/17 08:09:27;;;;;;;7.03;1.20;;;;;;;;;;5025719;28;20018;-67
2022/07/17 08:11:53;;;;;;;6.90;1.27;;;;;;;;;;5028103;28;20033;-68
2022/07/17 08:14:18;;;;;;;4.93;1.10;;;;;;;;;;5028507;28;20513;-68
2022/07/17 08:16:43;;;;;;;5.93;1.20;;;;;;;;;;5020444;28;20022;-68
2022/07/17 08:19:08;;;;;;;5.97;1.17;;;;;;;;;;5023571;28;20025;-69
2022/07/17 08:21:34;;;;;;;4.95;1.40;;;;;;;;;;5028032;28;20022;-68
2022/07/17 08:23:59;;;;;;;5.72;1.20;;;;;;;;;;5023217;28;20075;-68
2022/07/17 08:26:24;;;;;;;5.35;1.20;;;;;;;;;;5029741;28;20417;-68
2022/07/17 08:28:50;;;;;;;4.82;1.33;;;;;;;;;;5031762;28;20432;-68
2022/07/17 08:31:15;;;;;;;6.88;1.33;;;;;;;;;;5024780;28;20150;-68
2022/07/17 08:33:40;;;;;;;6.05;1.30;;;;;;;;;;5027966;28;20135;-67
2022/07/17 08:36:06;;;;;;;6.85;1.58;;;;;;;;;;5030994;28;20070;-67
2022/07/17 08:38:31;;;;;;;6.28;1.38;;;;;;;;;;5031754;28;20018;-67
2022/07/17 08:40:58;;;;;;;7.90;1.48;;;;;;;;;;5027539;28;20032;-68
2022/07/17 08:43:24;;;;;;;5.35;1.58;;;;;;;;;;5030685;28;20041;-67
2022/07/17 08:45:49;;;;;;;5.55;1.30;;;;;;;;;;5025858;28;20026;-67
2022/07/17 08:48:16;;;;;;;6.22;1.48;;;;;;;;;;5030750;28;20046;-67
2022/07/17 08:50:42;;;;;;;7.32;1.38;;;;;;;;;;5029204;28;20067;-67
2022/07/17 08:53:07;;;;;;;5.47;2.05;;;;;;;;;;5025909;28;20025;-68
2022/07/17 08:55:32;;;;;;;6.82;1.20;;;;;;;;;;5030188;28;20086;-69
2022/07/17 08:57:58;;;;;;;5.95;1.33;;;;;;;;;;5028880;28;20021;-68
2022/07/17 09:00:24;;;;;;;8.82;1.73;;;;;;;;;;5028999;28;20022;-68
2022/07/17 09:02:53;;;;;;;6.93;1.40;;;;;;;;;;5029075;28;20495;-68
2022/07/17 09:05:20;;;;;;;7.30;1.20;;;;;;;;;;5030926;28;20037;-67
2022/07/17 09:07:46;;;;;;;9.45;1.38;;;;;;;;;;5027998;28;20030;-67
2022/07/17 09:10:11;;;;;;;7.63;1.50;;;;;;;;;;5027633;28;20026;-67
2022/07/17 09:12:37;;;;;;;5.20;1.33;;;;;;;;;;5022628;28;20059;-67
2022/07/17 09:15:13;;;;;;;4.50;1.13;;;;;;;;;;5028614;28;20025;-68
2022/07/17 09:17:47;;;;;;;6.00;1.27;;;;;;;;;;5029112;28;20025;-67
2022/07/17 09:20:13;;;;;;;5.50;1.20;;;;;;;;;;5030321;28;20105;-67
2022/07/17 09:22:38;;;;;;;5.93;1.20;;;;;;;;;;5029535;28;20109;-68
2022/07/17 09:25:04;;;;;;;7.03;1.30;;;;;;;;;;5031367;28;20104;-67
2022/07/17 09:27:32;;;;;;;5.68;1.40;;;;;;;;;;5029593;28;20112;-67
2022/07/17 09:30:03;;;;;;;5.72;1.30;;;;;;;;;;5019200;28;20030;-67
2022/07/17 09:32:29;;;;;;;8.73;1.30;;;;;;;;;;5029602;28;20026;-67
2022/07/17 09:34:55;;;;;;;5.53;1.27;;;;;;;;;;5022138;28;20025;-68
2022/07/17 09:37:25;;;;;;;7.50;1.30;;;;;;;;;;5009542;28;20029;-67
2022/07/17 09:39:51;;;;;;;5.57;1.35;;;;;;;;;;5028024;28;20087;-67
2022/07/17 09:42:23;;;;;;;6.35;1.00;;;;;;;;;;5029237;28;20360;-67
2022/07/17 09:44:55;;;;;;;4.82;0.90;;;;;;;;;;5026927;28;20033;-67
2022/07/17 09:47:21;;;;;;;5.55;1.17;;;;;;;;;;5010812;28;20152;-68
2022/07/17 09:49:46;;;;;;;4.53;1.02;;;;;;;;;;5021875;28;20116;-68
2022/07/17 09:52:12;;;;;;;4.90;1.02;;;;;;;;;;5022683;28;20026;-68
2022/07/17 09:54:38;;;;;;;3.85;1.10;;;;;;;;;;5014950;28;20021;-68
2022/07/17 09:57:03;;;;;;;5.70;1.17;;;;;;;;;;5016811;28;20395;-68
2022/07/17 09:59:34;;;;;;;4.25;0.90;;;;;;;;;;5027736;28;20723;-67
2022/07/17 10:02:00;;;;;;;5.75;1.00;;;;;;;;;;5028969;28;20032;-67
2022/07/17 10:04:25;;;;;;;6.20;1.10;;;;;;;;;;5012986;28;20414;-67
2022/07/17 10:06:51;;;;;;;4.00;0.88;;;;;;;;;;5015489;28;20033;-67
2022/07/17 10:09:16;;;;;;;5.95;1.38;;;;;;;;;;5020979;28;20142;-67
2022/07/17 10:11:42;;;;;;;5.05;1.20;;;;;;;;;;5028675;28;20025;-68
2022/07/17 10:14:10;;;;;;;6.10;1.63;;;;;;;;;;5026278;28;20021;-69
2022/07/17 10:16:38;;;;;;;4.63;1.40;;;;;;;;;;5016315;28;20025;-67
2022/07/17 10:19:14;;;;;;;8.40;1.10;;;;;;;;;;5025388;28;20036;-68
2022/07/17 10:21:39;;;;;;;6.75;1.52;;;;;;;;;;5028200;28;20029;-68
2022/07/17 10:24:08;;;;;;;8.02;1.27;;;;;;;;;;5027963;28;20024;-67
2022/07/17 10:26:48;;;;;;;5.75;1.10;;;;;;;;;;5028766;28;20106;-68
2022/07/17 10:29:26;;;;;;;6.67;1.13;;;;;;;;;;5028348;28;20405;-67
2022/07/17 10:31:52;;;;;;;4.57;1.10;;;;;;;;;;5026414;28;20375;-67
2022/07/17 10:34:17;;;;;;;7.22;1.30;;;;;;;;;;5027279;28;20109;-67
2022/07/17 10:36:43;;;;;;;6.03;1.20;;;;;;;;;;5025627;28;20285;-67
2022/07/17 10:39:16;;;;;;;5.55;1.10;;;;;;;;;;5022814;28;20057;-67
2022/07/17 10:41:41;;;;;;;4.53;1.25;;;;;;;;;;5024310;28;20425;-67
2022/07/17 10:44:07;;;;;;;3.90;1.00;;;;;;;;;;5030553;28;20060;-67
2022/07/17 10:46:32;;;;;;;4.88;1.33;;;;;;;;;;5010975;28;20057;-67
2022/07/17 10:48:57;;;;;;;4.38;1.10;;;;;;;;;;5021667;28;20100;-67
2022/07/17 10:51:27;;;;;;;5.37;1.10;;;;;;;;;;5028673;28;20037;-67
2022/07/17 10:53:55;;;;;;;4.10;1.10;;;;;;;;;;5027345;28;20276;-68
2022/07/17 10:56:21;;;;;;;6.32;1.10;;;;;;;;;;5031009;28;20557;-67
2022/07/17 10:58:46;;;;;;;5.72;1.23;;;;;;;;;;5027536;28;20104;-67
2022/07/17 11:01:12;;;;;;;5.03;1.20;;;;;;;;;;5018442;28;20079;-67
2022/07/17 11:03:48;;;;;;;4.93;1.25;;;;;;;;;;5017819;28;20278;-67
2022/07/17 11:06:32;;;;;;;4.90;1.20;;;;;;;;;;5012530;28;20442;-67
2022/07/17 11:08:57;;;;;;;6.03;1.20;;;;;;;;;;5028363;28;20497;-68
2022/07/17 11:11:34;;;;;;;6.22;1.25;;;;;;;;;;5014349;28;20029;-67
2022/07/17 11:14:08;;;;;;;4.95;1.10;;;;;;;;;;5025060;28;20029;-67
2022/07/17 11:16:33;;;;;;;3.95;1.10;;;;;;;;;;5034331;28;20453;-67
2022/07/17 11:18:59;;;;;;;5.15;1.23;;;;;;;;;;5022461;28;20022;-68
2022/07/17 11:21:24;;;;;;;8.35;1.40;;;;;;;;;;5023529;28;20382;-67
2022/07/17 11:23:54;;;;;;;6.70;1.50;;;;;;;;;;5024575;28;20044;-67
2022/07/17 11:26:22;;;;;;;5.95;1.20;;;;;;;;;;5028568;28;20029;-67
2022/07/17 11:28:48;;;;;;;5.20;1.20;;;;;;;;;;5031624;28;20053;-67
2022/07/17 11:31:24;;;;;;;5.72;1.50;;;;;;;;;;5031805;28;20053;-67
2022/07/17 11:33:51;;;;;;;4.05;1.08;;;;;;;;;;5027663;28;20092;-67
2022/07/17 11:36:23;;;;;;;4.45;1.30;;;;;;;;;;5016872;28;20034;-67
2022/07/17 11:38:49;;;;;;;8.75;1.23;;;;;;;;;;5020120;28;20075;-67
2022/07/17 11:41:15;;;;;;;4.88;1.10;;;;;;;;;;5030764;28;20021;-67
2022/07/17 11:43:41;;;;;;;6.10;1.20;;;;;;;;;;5029710;28;20553;-67
2022/07/17 11:46:07;;;;;;;4.28;1.08;;;;;;;;;;5031662;28;20082;-67
2022/07/17 11:48:32;;;;;;;5.22;1.20;;;;;;;;;;5023418;28;20084;-67
2022/07/17 11:50:57;;;;;;;7.28;0.95;;;;;;;;;;5030467;28;20099;-67
2022/07/17 11:53:40;;;;;;;5.10;1.00;;;;;;;;;;5028349;28;20026;-67
2022/07/17 11:56:06;;;;;;;5.03;1.00;;;;;;;;;;5028404;28;20123;-67
2022/07/17 11:58:47;;;;;;;6.00;1.30;;;;;;;;;;5024594;28;20057;-67
2022/07/17 12:01:13;;;;;;;4.63;1.13;;;;;;;;;;5014511;28;20034;-67
2022/07/17 12:03:38;;;;;;;5.53;1.30;;;;;;;;;;5024111;28;20032;-67
2022/07/17 12:06:04;;;;;;;7.03;1.33;;;;;;;;;;5016720;28;20021;-67
2022/07/17 12:08:29;;;;;;;5.57;1.20;;;;;;;;;;5028979;28;20076;-67
2022/07/17 12:11:08;;;;;;;5.55;1.00;;;;;;;;;;5025194;28;20056;-67
2022/07/17 12:13:43;;;;;;;8.13;1.17;;;;;;;;;;5019481;28;20022;-67
2022/07/17 12:16:25;;;;;;;6.22;1.30;;;;;;;;;;5020115;28;20030;-67
2022/07/17 12:18:57;;;;;;;4.13;0.98;;;;;;;;;;5029413;28;20087;-68
2022/07/17 12:21:22;;;;;;;5.18;1.17;;;;;;;;;;5018685;28;20429;-67
2022/07/17 12:23:57;;;;;;;6.18;1.00;;;;;;;;;;5023428;28;20035;-67
2022/07/17 12:26:22;;;;;;;5.95;1.20;;;;;;;;;;5016193;28;20573;-67
2022/07/17 12:28:47;;;;;;;3.75;0.90;;;;;;;;;;5026644;28;20072;-67
2022/07/17 12:31:13;;;;;;;5.38;1.08;;;;;;;;;;5027634;28;20110;-67
2022/07/17 12:33:39;;;;;;;5.45;1.35;;;;;;;;;;5030865;28;20370;-67
2022/07/17 12:36:04;;;;;;;4.75;0.90;;;;;;;;;;5031867;28;20036;-67
2022/07/17 12:38:30;;;;;;;4.78;1.02;;;;;;;;;;5025588;28;20139;-67
2022/07/17 12:40:55;;;;;;;4.13;1.05;;;;;;;;;;5032220;28;20109;-67
2022/07/17 12:43:21;;;;;;;4.13;1.15;;;;;;;;;;5030894;28;20033;-67
2022/07/17 12:45:46;;;;;;;5.00;1.20;;;;;;;;;;5026973;28;20038;-67
2022/07/17 12:48:11;;;;;;;2.88;0.88;;;;;;;;;;5019099;28;20037;-67
2022/07/17 12:50:37;;;;;;;3.83;1.13;;;;;;;;;;5029207;28;20452;-68
2022/07/17 12:53:02;;;;;;;6.38;1.40;;;;;;;;;;5024206;28;20033;-67
2022/07/17 12:55:27;;;;;;;6.72;1.35;;;;;;;;;;5030678;28;20037;-67
2022/07/17 12:57:53;;;;;;;4.68;1.10;;;;;;;;;;5028279;28;20051;-67
2022/07/17 13:00:18;;;;;;;5.40;1.15;;;;;;;;;;5029391;28;20075;-67
2022/07/17 13:02:43;;;;;;;3.13;1.00;;;;;;;;;;5021215;28;20064;-67
2022/07/17 13:05:08;;;;;;;4.15;1.00;;;;;;;;;;5032400;28;20052;-67
2022/07/17 13:07:34;;;;;;;5.78;1.10;;;;;;;;;;5032441;28;20110;-67
2022/07/17 13:09:59;;;;;;;3.17;1.05;;;;;;;;;;5029967;28;20121;-67
2022/07/17 13:12:24;;;;;;;5.68;1.30;;;;;;;;;;5028801;28;20105;-66
2022/07/17 13:14:50;;;;;;;5.93;1.00;;;;;;;;;;5015313;28;20544;-67
2022/07/17 13:17:15;;;;;;;3.83;1.02;;;;;;;;;;5012811;28;20425;-67
2022/07/17 13:19:41;;;;;;;4.30;0.90;;;;;;;;;;5028447;28;20026;-67
2022/07/17 13:22:06;;;;;;;5.03;0.90;;;;;;;;;;5021552;28;20513;-67
2022/07/17 13:24:31;;;;;;;4.13;0.90;;;;;;;;;;5037629;28;20500;-66
2022/07/17 13:26:57;;;;;;;5.40;1.15;;;;;;;;;;5032859;28;20021;-67
2022/07/17 13:29:22;;;;;;;5.18;1.00;;;;;;;;;;5029240;28;20122;-67
2022/07/17 13:31:48;;;;;;;5.60;1.20;;;;;;;;;;5028470;28;20037;-67
2022/07/17 13:34:13;;;;;;;3.78;0.95;;;;;;;;;;5031059;28;20054;-67
2022/07/17 13:36:38;;;;;;;4.80;0.90;;;;;;;;;;5029344;28;20108;-67
2022/07/17 13:39:04;;;;;;;4.47;1.10;;;;;;;;;;5030665;28;20124;-67
2022/07/17 13:41:30;;;;;;;4.38;1.10;;;;;;;;;;5028752;28;20036;-67
2022/07/17 13:43:55;;;;;;;5.85;1.10;;;;;;;;;;5026288;28;20541;-67
2022/07/17 13:46:21;;;;;;;6.50;1.08;;;;;;;;;;5013734;28;20096;-67
2022/07/17 13:48:46;;;;;;;3.97;1.00;;;;;;;;;;5021195;28;20032;-67
2022/07/17 13:51:12;;;;;;;6.25;1.23;;;;;;;;;;5028162;28;20087;-67
2022/07/17 13:53:37;;;;;;;5.28;1.00;;;;;;;;;;5028173;28;20430;-67
2022/07/17 13:56:02;;;;;;;4.68;1.00;;;;;;;;;;5019910;28;20522;-67
2022/07/17 13:58:27;;;;;;;5.72;1.00;;;;;;;;;;5016599;28;20157;-67
2022/07/17 14:00:53;;;;;;;6.50;0.98;;;;;;;;;;5030390;28;20025;-67
2022/07/17 14:03:18;;;;;;;6.40;1.10;;;;;;;;;;5027246;28;20358;-67
2022/07/17 14:05:43;;;;;;;3.72;1.10;;;;;;;;;;5015881;28;20449;-67
2022/07/17 14:08:09;;;;;;;5.50;1.08;;;;;;;;;;5028135;28;20417;-67
2022/07/17 14:10:34;;;;;;;5.57;1.02;;;;;;;;;;5027206;28;20025;-67
2022/07/17 14:12:59;;;;;;;3.88;1.15;;;;;;;;;;5030448;28;20033;-67
2022/07/17 14:15:24;;;;;;;4.20;1.00;;;;;;;;;;5029122;28;20022;-67
2022/07/17 14:17:49;;;;;;;5.40;1.15;;;;;;;;;;5012603;28;20052;-67
2022/07/17 14:20:15;;;;;;;4.35;1.05;;;;;;;;;;5011507;28;20444;-66
2022/07/17 14:22:40;;;;;;;2.92;0.80;;;;;;;;;;5011033;28;20446;-67
2022/07/17 14:25:06;;;;;;;4.10;1.00;;;;;;;;;;5016263;28;20045;-67
2022/07/17 14:27:32;;;;;;;3.28;0.93;;;;;;;;;;5023948;28;20064;-67
2022/07/17 14:29:57;;;;;;;3.25;0.90;;;;;;;;;;5026211;28;20029;-67
2022/07/17 14:32:22;;;;;;;4.97;1.08;;;;;;;;;;5028253;28;20126;-67